createdAt,value
2022-11-19T00:00:25.840Z,101203.00
2022-11-19T00:03:01.921Z,101199.53
2022-11-19T00:06:12.807Z,101199.56
2022-11-19T00:08:45.432Z,101196.09
2022-11-19T00:11:37.889Z,101193.50
2022-11-19T00:14:09.760Z,101190.94
2022-11-19T00:16:40.540Z,101190.06
2022-11-19T00:19:15.613Z,101180.50
2022-11-19T00:21:56.346Z,101181.38
2022-11-19T00:24:30.161Z,101178.78
2022-11-19T00:27:15.521Z,101183.13
2022-11-19T00:29:46.757Z,101189.19
2022-11-19T00:32:20.798Z,101191.75
2022-11-19T00:34:52.045Z,101198.72
2022-11-19T00:37:29.904Z,101204.84
2022-11-19T00:40:08.389Z,101193.53
2022-11-19T00:42:38.256Z,101197.00
2022-11-19T00:45:09.096Z,101206.59
2022-11-19T00:47:43.325Z,101204.84
2022-11-19T00:50:15.426Z,101210.97
2022-11-19T00:52:46.285Z,101201.38
2022-11-19T00:55:15.755Z,101210.94
2022-11-19T00:57:45.652Z,101213.53
2022-11-19T01:00:24.200Z,101219.59
2022-11-19T01:02:54.864Z,101220.41
2022-11-19T01:05:27.231Z,101219.50
2022-11-19T01:08:01.900Z,101216.03
2022-11-19T01:10:30.737Z,101216.97
2022-11-19T01:13:22.074Z,101223.88
2022-11-19T01:15:58.975Z,101222.97
2022-11-19T01:18:31.155Z,101224.78
2022-11-19T01:21:11.122Z,101221.28
2022-11-19T01:23:45.475Z,101230.84
2022-11-19T01:26:15.694Z,101232.56
2022-11-19T01:28:45.914Z,101228.22
2022-11-19T01:31:21.697Z,101220.34
2022-11-19T01:34:07.218Z,101222.97
2022-11-19T01:36:39.309Z,101222.94
2022-11-19T01:39:08.788Z,101218.56
2022-11-19T01:41:38.379Z,101215.09
2022-11-19T01:44:43.726Z,101216.84
2022-11-19T01:47:17.433Z,101217.69
2022-11-19T01:49:53.453Z,101221.06
2022-11-19T01:52:40.039Z,101225.34
2022-11-19T01:55:15.117Z,101221.84
2022-11-19T01:57:59.495Z,101220.09
2022-11-19T02:00:28.880Z,101223.50
2022-11-19T02:03:09.711Z,101227.75
2022-11-19T02:05:42.092Z,101229.41
2022-11-19T02:08:40.458Z,101226.66
2022-11-19T02:11:40.434Z,101224.78
2022-11-19T02:14:36.012Z,101229.91
2022-11-19T02:17:30.689Z,101224.59
2022-11-19T02:20:44.003Z,101225.31
2022-11-19T02:24:18.913Z,101222.53
2022-11-19T02:27:38.852Z,101218.91
2022-11-19T02:30:13.804Z,101219.63
2022-11-19T02:33:15.189Z,101220.31
2022-11-19T02:35:53.355Z,101221.94
2022-11-19T02:38:34.877Z,101230.53
2022-11-19T02:41:30.835Z,101232.09
2022-11-19T02:44:36.745Z,101226.88
2022-11-19T02:47:19.489Z,101225.81
2022-11-19T02:49:58.773Z,101215.16
2022-11-19T02:52:35.391Z,101214.56
2022-11-19T02:55:10.145Z,101207.91
2022-11-19T02:57:40.125Z,101207.16
2022-11-19T03:00:28.634Z,101207.25
2022-11-19T03:03:26.587Z,101203.69
2022-11-19T03:06:04.898Z,101216.69
2022-11-19T03:08:34.382Z,101213.06
2022-11-19T03:11:21.256Z,101208.44
2022-11-19T03:14:21.439Z,101204.72
2022-11-19T03:16:58.659Z,101209.59
2022-11-19T03:19:41.731Z,101208.53
2022-11-19T03:22:23.877Z,101206.56
2022-11-19T03:25:12.532Z,101212.31
2022-11-19T03:27:56.762Z,101206.00
2022-11-19T03:30:28.920Z,101204.06
2022-11-19T03:33:05.872Z,101211.75
2022-11-19T03:35:45.178Z,101193.25
2022-11-19T03:38:22.343Z,101200.09
2022-11-19T03:40:58.668Z,101205.06
2022-11-19T03:43:35.907Z,101205.00
2022-11-19T03:46:16.722Z,101198.09
2022-11-19T03:48:49.895Z,101184.25
2022-11-19T03:51:44.508Z,101197.97
2022-11-19T03:54:20.354Z,101194.38
2022-11-19T03:56:54.324Z,101197.84
2022-11-19T03:59:29.573Z,101195.72
2022-11-19T04:02:10.833Z,101193.94
2022-11-19T04:04:40.426Z,101193.06
2022-11-19T04:07:14.342Z,101193.88
2022-11-19T04:09:45.682Z,101191.88
2022-11-19T04:12:19.695Z,101192.22
2022-11-19T04:15:03.299Z,101187.69
2022-11-19T04:17:37.504Z,101182.31
2022-11-19T04:20:11.032Z,101190.09
2022-11-19T04:22:42.571Z,101178.31
2022-11-19T04:25:15.823Z,101177.16
2022-11-19T04:27:46.745Z,101177.66
2022-11-19T04:30:17.584Z,101186.06
2022-11-19T04:32:52.679Z,101176.97
2022-11-19T04:35:25.585Z,101179.38
2022-11-19T04:37:56.049Z,101174.16
2022-11-19T04:40:25.739Z,101180.25
2022-11-19T04:42:55.217Z,101178.53
2022-11-19T04:45:25.165Z,101182.84
2022-11-19T04:47:56.370Z,101179.97
2022-11-19T04:50:25.657Z,101189.38
2022-11-19T04:52:59.544Z,101177.97
2022-11-19T04:55:28.967Z,101184.81
2022-11-19T04:57:58.431Z,101182.97
2022-11-19T05:00:27.583Z,101184.75
2022-11-19T05:03:00.196Z,101175.91
2022-11-19T05:05:29.318Z,101175.56
2022-11-19T05:08:00.440Z,101170.22
2022-11-19T05:10:34.826Z,101171.19
2022-11-19T05:13:10.559Z,101165.03
2022-11-19T05:15:42.537Z,101176.72
2022-11-19T05:18:16.801Z,101179.97
2022-11-19T05:20:46.330Z,101181.81
2022-11-19T05:23:23.239Z,101185.25
2022-11-19T05:25:53.582Z,101178.22
2022-11-19T05:28:37.523Z,101173.81
2022-11-19T05:31:10.953Z,101169.53
2022-11-19T05:33:40.664Z,101174.94
2022-11-19T05:36:16.862Z,101169.88
2022-11-19T05:38:48.003Z,101171.63
2022-11-19T05:41:34.347Z,101165.00
2022-11-19T05:44:07.349Z,101166.13
2022-11-19T05:46:40.530Z,101158.34
2022-11-19T05:49:09.622Z,101156.75
2022-11-19T05:51:46.119Z,101152.69
2022-11-19T05:54:21.808Z,101162.22
2022-11-19T05:56:57.963Z,101161.59
2022-11-19T05:59:29.044Z,101156.69
2022-11-19T06:01:58.405Z,101147.38
2022-11-19T06:04:28.905Z,101148.94
2022-11-19T06:07:06.100Z,101153.22
2022-11-19T06:09:37.239Z,101155.81
2022-11-19T06:12:07.047Z,101148.97
2022-11-19T06:14:37.130Z,101148.00
2022-11-19T06:17:07.125Z,101143.41
2022-11-19T06:19:35.976Z,101149.91
2022-11-19T06:22:15.024Z,101154.28
2022-11-19T06:24:45.974Z,101150.22
2022-11-19T06:27:15.329Z,101136.25
2022-11-19T06:29:52.222Z,101142.88
2022-11-19T06:32:29.602Z,101145.41
2022-11-19T06:35:01.805Z,101136.88
2022-11-19T06:37:32.142Z,101139.38
2022-11-19T06:40:07.301Z,101139.59
2022-11-19T06:43:06.938Z,101143.69
2022-11-19T06:45:39.638Z,101142.81
2022-11-19T06:48:17.538Z,101139.03
2022-11-19T06:50:50.737Z,101137.53
2022-11-19T06:53:19.974Z,101138.59
2022-11-19T06:55:56.119Z,101135.78
2022-11-19T06:58:25.570Z,101137.63
2022-11-19T07:00:55.106Z,101136.75
2022-11-19T07:03:36.350Z,101131.69
2022-11-19T07:06:07.252Z,101134.41
2022-11-19T07:08:40.072Z,101131.22
2022-11-19T07:11:29.345Z,101134.69
2022-11-19T07:14:07.769Z,101134.81
2022-11-19T07:16:44.574Z,101132.38
2022-11-19T07:19:20.134Z,101135.16
2022-11-19T07:21:52.864Z,101130.69
2022-11-19T07:24:29.122Z,101143.03
2022-11-19T07:26:59.353Z,101152.25
2022-11-19T07:29:28.244Z,101141.59
2022-11-19T07:32:05.327Z,101147.63
2022-11-19T07:34:36.928Z,101139.91
2022-11-19T07:37:06.293Z,101143.03
2022-11-19T07:39:35.741Z,101145.72
2022-11-19T07:42:27.529Z,101147.41
2022-11-19T07:44:56.419Z,101143.72
2022-11-19T07:47:25.695Z,101148.06
2022-11-19T07:49:58.017Z,101156.81
2022-11-19T07:52:40.991Z,101148.09
2022-11-19T07:55:15.671Z,101145.72
2022-11-19T07:57:46.249Z,101141.06
2022-11-19T08:00:16.777Z,101144.75
2022-11-19T08:02:45.802Z,101142.47
2022-11-19T08:05:36.664Z,101135.34
2022-11-19T08:08:12.667Z,101148.09
2022-11-19T08:10:43.957Z,101147.53
2022-11-19T08:13:21.997Z,101144.38
2022-11-19T08:15:54.353Z,101140.91
2022-11-19T08:18:25.031Z,101136.19
2022-11-19T08:21:07.106Z,101131.56
2022-11-19T08:23:39.353Z,101130.19
2022-11-19T08:26:17.390Z,101132.94
2022-11-19T08:28:47.532Z,101129.50
2022-11-19T08:31:19.367Z,101122.19
2022-11-19T08:33:49.780Z,101122.41
2022-11-19T08:36:23.760Z,101127.00
2022-11-19T08:38:56.500Z,101113.16
2022-11-19T08:41:42.619Z,101105.72
2022-11-19T08:44:13.384Z,101098.41
2022-11-19T08:46:47.140Z,101100.03
2022-11-19T08:49:16.336Z,101095.28
2022-11-19T08:51:46.742Z,101099.88
2022-11-19T08:54:29.773Z,101093.88
2022-11-19T08:57:00.085Z,101092.88
2022-11-19T08:59:37.309Z,101080.34
2022-11-19T09:02:10.885Z,101075.56
2022-11-19T09:04:41.936Z,101080.16
2022-11-19T09:07:21.586Z,101072.75
2022-11-19T09:09:50.736Z,101073.69
2022-11-19T09:12:24.642Z,101069.66
2022-11-19T09:14:56.223Z,101068.06
2022-11-19T09:17:25.265Z,101061.75
2022-11-19T09:19:54.095Z,101060.75
2022-11-19T09:22:23.894Z,101055.63
2022-11-19T09:24:56.586Z,101043.69
2022-11-19T09:27:33.499Z,101052.38
2022-11-19T09:30:04.459Z,101047.28
2022-11-19T09:32:34.001Z,101054.94
2022-11-19T09:35:11.255Z,101041.91
2022-11-19T09:37:42.254Z,101046.31
2022-11-19T09:40:20.075Z,101049.03
2022-11-19T09:43:14.934Z,101029.47
2022-11-19T09:46:37.954Z,101039.25
2022-11-19T09:49:19.157Z,101039.44
2022-11-19T09:51:59.745Z,101037.03
2022-11-19T09:54:30.297Z,101035.66
2022-11-19T09:57:14.718Z,101028.66
2022-11-19T09:59:47.552Z,101034.25
2022-11-19T10:02:24.882Z,101036.56
2022-11-19T10:04:58.913Z,101029.41
2022-11-19T10:08:46.772Z,101039.56
2022-11-19T10:10:52.359Z,101038.09
2022-11-19T10:13:54.883Z,101029.72
2022-11-19T10:16:49.667Z,101029.63
2022-11-19T10:19:48.085Z,101027.56
2022-11-19T10:22:29.665Z,101024.84
2022-11-19T10:25:17.064Z,101020.88
2022-11-19T10:27:58.133Z,101032.28
2022-11-19T10:30:32.564Z,101030.22
2022-11-19T10:33:06.947Z,101011.59
2022-11-19T10:35:44.576Z,101014.41
2022-11-19T10:38:30.505Z,101008.34
2022-11-19T10:41:11.513Z,101011.69
2022-11-19T10:43:50.024Z,101014.91
2022-11-19T10:46:24.271Z,101002.88
2022-11-19T10:48:59.006Z,101003.41
2022-11-19T10:51:41.600Z,101006.16
2022-11-19T10:54:30.274Z,101010.34
2022-11-19T10:57:05.706Z,101003.78
2022-11-19T10:59:40.846Z,101004.38
2022-11-19T11:02:42.612Z,101003.31
2022-11-19T11:05:16.845Z,101000.25
2022-11-19T11:07:56.694Z,101000.38
2022-11-19T11:10:36.736Z,100995.94
2022-11-19T11:14:16.768Z,100994.72
2022-11-19T11:17:03.262Z,100990.34
2022-11-19T11:20:02.037Z,100981.22
2022-11-19T11:22:31.912Z,100978.97
2022-11-19T11:25:22.416Z,100973.19
2022-11-19T11:28:07.851Z,100977.75
2022-11-19T11:30:37.738Z,100979.16
2022-11-19T11:33:30.848Z,100974.41
2022-11-19T11:36:04.409Z,100975.31
2022-11-19T11:38:41.134Z,100972.56
2022-11-19T11:44:17.822Z,100966.00
2022-11-19T11:46:57.496Z,100961.63
2022-11-19T11:49:33.339Z,100959.13
2022-11-19T11:52:36.309Z,100959.34
2022-11-19T11:55:17.613Z,100963.81
2022-11-19T11:58:02.039Z,100957.31
2022-11-19T12:00:40.266Z,100960.91
2022-11-19T12:03:19.188Z,100950.84
2022-11-19T12:06:10.322Z,100964.66
2022-11-19T12:08:54.232Z,100955.03
2022-11-19T12:11:54.526Z,100947.84
2022-11-19T12:14:31.298Z,100952.44
2022-11-19T12:17:23.420Z,100951.88
2022-11-19T12:20:22.830Z,100948.91
2022-11-19T12:23:29.009Z,100945.72
2022-11-19T12:26:14.320Z,100931.00
2022-11-19T12:29:13.320Z,100935.38
2022-11-19T12:32:22.748Z,100930.00
2022-11-19T12:35:33.956Z,100934.06
2022-11-19T12:38:37.425Z,100940.97
2022-11-19T12:41:34.039Z,100936.25
2022-11-19T12:44:17.257Z,100933.94
2022-11-19T12:47:27.672Z,100938.38
2022-11-19T12:50:29.480Z,100942.25
2022-11-19T12:53:38.532Z,100941.56
2022-11-19T12:56:26.181Z,100943.69
2022-11-19T12:59:15.559Z,100937.06
2022-11-19T13:01:51.556Z,100933.94
2022-11-19T13:04:29.871Z,100929.94
2022-11-19T13:07:07.320Z,100927.94
2022-11-19T13:09:44.468Z,100936.03
2022-11-19T13:12:28.689Z,100925.22
2022-11-19T13:15:12.465Z,100925.22
2022-11-19T13:17:47.326Z,100922.13
2022-11-19T13:20:28.924Z,100920.16
2022-11-19T13:23:06.485Z,100921.31
2022-11-19T13:25:42.067Z,100919.47
2022-11-19T13:28:27.738Z,100912.28
2022-11-19T13:31:06.191Z,100909.97
2022-11-19T13:33:50.984Z,100903.66
2022-11-19T13:36:33.921Z,100902.66
2022-11-19T13:39:16.379Z,100889.00
2022-11-19T13:42:12.844Z,100886.06
2022-11-19T13:44:42.528Z,100885.03
2022-11-19T13:47:21.783Z,100885.50
2022-11-19T13:49:58.634Z,100883.16
2022-11-19T13:52:42.064Z,100883.25
2022-11-19T13:55:35.094Z,100873.94
2022-11-19T13:58:39.521Z,100884.34
2022-11-19T14:01:49.432Z,100877.84
2022-11-19T14:04:57.652Z,100879.75
2022-11-19T14:08:06.529Z,100872.84
2022-11-19T14:10:45.936Z,100877.94
2022-11-19T14:13:53.159Z,100870.84
2022-11-19T14:16:56.516Z,100883.66
2022-11-19T14:19:46.619Z,100880.06
2022-11-19T14:22:54.963Z,100876.38
2022-11-19T14:26:38.865Z,100871.59
2022-11-19T14:29:07.907Z,100873.34
2022-11-19T14:32:30.808Z,100879.38
2022-11-19T14:35:39.152Z,100870.50
2022-11-19T14:38:51.385Z,100869.00
2022-11-19T14:41:35.176Z,100862.22
2022-11-19T14:44:30.356Z,100872.34
2022-11-19T14:47:37.255Z,100860.19
2022-11-19T14:50:26.375Z,100870.25
2022-11-19T14:52:59.354Z,100862.69
2022-11-19T14:55:36.827Z,100866.41
2022-11-19T14:58:45.460Z,100852.84
2022-11-19T15:01:25.500Z,100855.03
2022-11-19T15:04:07.145Z,100849.44
2022-11-19T15:07:33.466Z,100851.53
2022-11-19T15:15:06.583Z,100842.72
2022-11-19T15:17:37.685Z,100846.72
2022-11-19T15:20:47.757Z,100848.16
2022-11-19T15:23:50.647Z,100849.00
2022-11-19T15:27:45.253Z,100837.72
2022-11-19T15:30:21.386Z,100845.88
2022-11-19T15:33:34.519Z,100843.63
2022-11-19T15:36:31.642Z,100843.00
2022-11-19T15:39:15.298Z,100840.03
2022-11-19T15:42:00.965Z,100848.19
2022-11-19T15:44:44.110Z,100843.06
2022-11-19T15:47:21.464Z,100836.66
2022-11-19T15:49:56.210Z,100843.00
2022-11-19T15:52:33.463Z,100845.78
2022-11-19T15:55:28.668Z,100840.91
2022-11-19T15:58:10.536Z,100838.47
2022-11-19T16:00:47.714Z,100839.50
2022-11-19T16:03:19.234Z,100836.06
2022-11-19T16:06:05.664Z,100826.53
2022-11-19T16:08:39.249Z,100827.47
2022-11-19T16:11:26.037Z,100825.28
2022-11-19T16:14:14.116Z,100817.56
2022-11-19T16:17:04.047Z,100825.56
2022-11-19T16:19:40.741Z,100819.50
2022-11-19T16:22:09.639Z,100818.88
2022-11-19T16:24:57.631Z,100818.09
2022-11-19T16:27:31.082Z,100819.66
2022-11-19T16:30:01.120Z,100821.59
2022-11-19T16:32:30.370Z,100816.41
2022-11-19T16:35:22.153Z,100820.03
2022-11-19T16:37:54.696Z,100811.97
2022-11-19T16:40:25.242Z,100813.63
2022-11-19T16:42:56.462Z,100811.06
2022-11-19T16:45:31.345Z,100808.56
2022-11-19T16:48:05.427Z,100808.41
2022-11-19T16:50:42.448Z,100813.72
2022-11-19T16:53:34.523Z,100807.53
2022-11-19T16:56:03.816Z,100800.69
2022-11-19T16:58:33.583Z,100809.75
2022-11-19T17:01:03.617Z,100810.41
2022-11-19T17:03:41.526Z,100815.09
2022-11-19T17:06:26.922Z,100822.03
2022-11-19T17:09:09.938Z,100826.31
2022-11-19T17:12:13.503Z,100827.44
2022-11-19T17:15:02.195Z,100826.22
2022-11-19T17:17:46.213Z,100830.78
2022-11-19T17:21:10.822Z,100827.22
2022-11-19T17:23:55.131Z,100833.09
2022-11-19T17:26:28.149Z,100837.78
2022-11-19T17:29:12.460Z,100841.34
2022-11-19T17:31:49.334Z,100837.00
2022-11-19T17:34:33.021Z,100840.84
2022-11-19T17:37:02.269Z,100833.56
2022-11-19T17:39:32.486Z,100829.94
2022-11-19T17:42:25.537Z,100833.28
2022-11-19T17:45:06.060Z,100834.09
2022-11-19T17:47:47.529Z,100834.09
2022-11-19T17:50:16.554Z,100843.94
2022-11-19T17:52:49.359Z,100832.09
2022-11-19T17:55:26.121Z,100838.63
2022-11-19T17:57:55.074Z,100836.19
2022-11-19T18:00:26.078Z,100841.63
2022-11-19T18:03:03.272Z,100838.19
2022-11-19T18:05:43.365Z,100843.59
2022-11-19T18:08:12.452Z,100839.56
2022-11-19T18:10:47.002Z,100848.84
2022-11-19T18:13:36.919Z,100847.25
2022-11-19T18:16:17.112Z,100844.72
2022-11-19T18:18:49.825Z,100840.56
2022-11-19T18:21:28.961Z,100839.63
2022-11-19T18:23:57.851Z,100840.69
2022-11-19T18:26:29.623Z,100840.09
2022-11-19T18:28:58.820Z,100851.59
2022-11-19T18:31:37.195Z,100837.56
2022-11-19T18:34:17.220Z,100836.84
2022-11-19T18:36:47.409Z,100832.47
2022-11-19T18:39:16.267Z,100830.50
2022-11-19T18:41:50.661Z,100835.16
2022-11-19T18:44:37.671Z,100833.78
2022-11-19T18:47:13.231Z,100837.34
2022-11-19T18:49:43.189Z,100838.22
2022-11-19T18:52:17.985Z,100834.97
2022-11-19T18:54:47.377Z,100838.53
2022-11-19T18:57:22.682Z,100839.38
2022-11-19T18:59:51.565Z,100841.97
2022-11-19T19:02:20.441Z,100844.28
2022-11-19T19:04:51.187Z,100846.81
2022-11-19T19:07:20.403Z,100849.25
2022-11-19T19:09:49.635Z,100849.56
2022-11-19T19:12:26.429Z,100849.28
2022-11-19T19:15:01.545Z,100848.78
2022-11-19T19:17:32.085Z,100849.09
2022-11-19T19:20:04.150Z,100841.34
2022-11-19T19:22:36.230Z,100837.78
2022-11-19T19:25:17.941Z,100844.13
2022-11-19T19:27:49.042Z,100845.69
2022-11-19T19:30:23.932Z,100840.50
2022-11-19T19:32:55.952Z,100845.72
2022-11-19T19:35:24.943Z,100838.91
2022-11-19T19:37:54.199Z,100835.53
2022-11-19T19:40:28.848Z,100824.63
2022-11-19T19:43:03.344Z,100833.88
2022-11-19T19:45:35.734Z,100827.44
2022-11-19T19:48:08.503Z,100823.16
2022-11-19T19:50:58.694Z,100819.72
2022-11-19T19:53:33.864Z,100813.66
2022-11-19T19:56:08.826Z,100813.13
2022-11-19T19:58:39.685Z,100817.66
2022-11-19T20:01:15.551Z,100816.34
2022-11-19T20:03:49.219Z,100822.22
2022-11-19T20:06:23.496Z,100816.22
2022-11-19T20:08:52.754Z,100828.66
2022-11-19T20:11:27.326Z,100823.97
2022-11-19T20:13:59.798Z,100826.56
2022-11-19T20:16:33.600Z,100823.06
2022-11-19T20:19:03.467Z,100827.94
2022-11-19T20:21:36.488Z,100824.06
2022-11-19T20:24:12.069Z,100823.22
2022-11-19T20:26:45.314Z,100830.22
2022-11-19T20:29:20.074Z,100818.19
2022-11-19T20:31:51.854Z,100824.63
2022-11-19T20:34:20.895Z,100818.69
2022-11-19T20:36:50.419Z,100821.63
2022-11-19T20:39:20.420Z,100816.88
2022-11-19T20:42:13.327Z,100816.41
2022-11-19T20:44:44.280Z,100819.22
2022-11-19T20:47:15.551Z,100822.00
2022-11-19T20:49:44.606Z,100817.75
2022-11-19T20:52:13.749Z,100816.09
2022-11-19T20:54:46.747Z,100814.88
2022-11-19T20:57:16.760Z,100812.22
2022-11-19T20:59:47.595Z,100815.03
2022-11-19T21:02:16.613Z,100813.38
2022-11-19T21:04:46.176Z,100813.38
2022-11-19T21:07:18.725Z,100808.97
2022-11-19T21:09:47.578Z,100809.06
2022-11-19T21:12:16.637Z,100802.19
2022-11-19T21:14:47.057Z,100800.41
2022-11-19T21:17:15.799Z,100799.66
2022-11-19T21:19:44.749Z,100808.63
2022-11-19T21:22:13.507Z,100806.03
2022-11-19T21:24:43.447Z,100811.47
2022-11-19T21:27:12.202Z,100809.56
2022-11-19T21:29:41.764Z,100806.03
2022-11-19T21:32:12.256Z,100805.19
2022-11-19T21:34:42.423Z,100817.47
2022-11-19T21:37:11.582Z,100801.69
2022-11-19T21:39:40.503Z,100806.97
2022-11-19T21:42:09.896Z,100796.41
2022-11-19T21:44:38.795Z,100798.06
2022-11-19T21:47:07.703Z,100796.28
2022-11-19T21:49:37.798Z,100786.53
2022-11-19T21:52:10.336Z,100791.81
2022-11-19T21:54:39.289Z,100797.88
2022-11-19T21:57:08.366Z,100788.22
2022-11-19T21:59:45.453Z,100782.03
2022-11-19T22:02:15.820Z,100787.88
2022-11-19T22:04:47.930Z,100788.75
2022-11-19T22:07:23.045Z,100787.88
2022-11-19T22:09:53.841Z,100771.16
2022-11-19T22:12:25.735Z,100776.50
2022-11-19T22:14:54.752Z,100775.59
2022-11-19T22:17:28.824Z,100775.72
2022-11-19T22:20:02.254Z,100770.50
2022-11-19T22:22:31.623Z,100768.72
2022-11-19T22:25:00.663Z,100764.31
2022-11-19T22:27:33.032Z,100765.25
2022-11-19T22:30:05.890Z,100773.00
2022-11-19T22:32:35.348Z,100770.44
2022-11-19T22:35:06.994Z,100774.00
2022-11-19T22:37:39.305Z,100766.84
2022-11-19T22:40:10.182Z,100765.94
2022-11-19T22:42:38.949Z,100761.47
2022-11-19T22:45:08.910Z,100768.47
2022-11-19T22:47:37.453Z,100768.47
2022-11-19T22:50:11.820Z,100759.00
2022-11-19T22:52:40.570Z,100763.53
2022-11-19T22:55:11.431Z,100760.13
2022-11-19T22:57:40.718Z,100761.13
2022-11-19T23:00:36.201Z,100764.59
2022-11-19T23:03:05.441Z,100770.78
2022-11-19T23:05:37.354Z,100769.94
2022-11-19T23:08:08.527Z,100768.09
2022-11-19T23:10:37.880Z,100769.69
2022-11-19T23:13:23.813Z,100767.09
2022-11-19T23:16:09.761Z,100764.41
2022-11-19T23:18:43.467Z,100766.06
2022-11-19T23:21:17.656Z,100774.00
2022-11-19T23:23:47.136Z,100771.13
2022-11-19T23:26:23.390Z,100766.59
2022-11-19T23:28:53.479Z,100765.38
2022-11-19T23:31:25.617Z,100761.78
2022-11-19T23:33:59.124Z,100762.59
2022-11-19T23:36:32.409Z,100763.22
2022-11-19T23:39:03.920Z,100758.69
2022-11-19T23:41:38.226Z,100764.03
2022-11-19T23:44:10.245Z,100768.41
2022-11-19T23:46:39.511Z,100757.13
2022-11-19T23:49:11.134Z,100762.66
2022-11-19T23:51:41.809Z,100764.38
2022-11-19T23:54:14.532Z,100759.28
2022-11-19T23:56:43.941Z,100759.94
2022-11-19T23:59:13.094Z,100762.78
